Terminal Aerodrome Forecast
Issued by NWS

Home | Current Version | Previous Version | Text Only | Print | Product List | Glossary On
Versions: 1 2 3 4 5 6 7 8 9 10 11 12 13 14 15 16
345
FTUS43 KGRB 301731
TAFATW
TAF
KATW 301731Z 3018/0118 03010G16KT P6SM BKN008 OVC016
      TEMPO 3018/3020 SCT008 OVC016
     FM302000 04011G17KT P6SM VCSH OVC019
     FM302300 04011KT P6SM VCSH OVC023
     FM010300 04010KT P6SM -SHRA OVC017
      TEMPO 0108/0112 3SM SHRA BR OVC008
     FM011200 04009KT P6SM -SHRA OVC010=

USA.gov is the U.S. government's official web portal to all federal, state and local government web resources and services.